Aeroporto :
LOGIN :

Iscrizione | Disclaimer

   EN    FR    IT 

 










Sommario :    VFR   VFR Marginale   IFR   IFR Intensivo   IFR Molto Intensivo
Visibilità : 
Base nubi : 
>= 8 km
>= 3000ft
5 / 8 km
1000 / 3000 ft
1500m / 5 km
500 / 1000 ft
800 / 1500m
200 / 500 ft
< 800m
< 200 ft
Simboli :   Temporali  Nebbia  Neve Forte  Precipitazioni Forti  Vento > 20 kt
SIGMETs :   Varie  Temporali  Ghiacco  Turbolenza  Onda orograficha  Ceneri Vulcaniche






- Altitudine del aeroporto : 157 ft
- Codice IATA : LIL


LFQQ - Lille Lesquin

ULTIMO METAR :
  • 152030Z AUTO 18009KT CAVOK 06/03 Q1005 NOSIG

METARs OBSOLETI :
  • 152000Z AUTO 18011KT CAVOK 06/03 Q1004 NOSIG
  • 151930Z AUTO 18010KT CAVOK 06/03 Q1004 NOSIG
  • 151900Z AUTO 18012KT CAVOK 06/03 Q1004 NOSIG
  • 151830Z AUTO 18011KT CAVOK 06/03 Q1004 NOSIG
  • 151800Z AUTO 18011KT CAVOK 06/03 Q1004 NOSIG

TAF TAF LFQQ
Valido dal 15 a 18 ore il 17 a 00 ore UTC


151700Z 1518/1624 19013KT CAVOK
BECMG 1600/1603 OVC005
BECMG 1606/1609 BKN015
TEMPO 1609/1624 3000 RA OVC005
BECMG 1618/1620 VRB03KT
ATIS : +33 3 20 16 19 54



MetMap, La meteo Aeronautica in un colpo d'occhio ! - Copyright ORBIFLY Dicembre 2007 - Disclaimer

ORBIFLY MET'MAP TEAM :

Programmazione e sviluppo : Alexandra Zaïnal
Concezione : Baudouin d'Aumeries
Aiuto per la programmazione : Marc-Olivier Méhu
Supporto tecnico e logistico : Manuel Goepfert
Aiuto per la traduzione : Arnaldo La Scala

Contatto : metmap@orbifly.com




FONTI E CREDITI :

   NOAA